Time;durP1;ratioP1;P1;durP2;ratioP2;P2;SDS_P1;SDS_P2;PMS_P1;PMS_P2;Temp;Humidity;BMP_temperature;BMP_pressure;BME280_temperature;BME280_humidity;BME280_pressure;Samples;Min_cycle;Max_cycle;Signal;HPM_P1;HPM_P2
2023/10/29 00:02:04;;;;;;;0.20;0.20;;;9.50;99.90;;;;;;5050488;28;20224;-88
2023/10/29 00:04:35;;;;;;;0.20;0.20;;;9.50;99.90;;;;;;5051918;28;20225;-87
2023/10/29 00:07:03;;;;;;;0.20;0.20;;;9.50;99.90;;;;;;5042909;28;20819;-85
2023/10/29 00:09:29;;;;;;;0.20;0.20;;;9.50;99.90;;;;;;5056655;28;20958;-87
2023/10/29 00:11:55;;;;;;;0.20;0.20;;;9.50;99.90;;;;;;5048818;28;20512;-86
2023/10/29 00:14:20;;;;;;;0.20;0.20;;;9.50;99.90;;;;;;5049948;28;20265;-87
2023/10/29 00:16:46;;;;;;;0.20;0.20;;;9.50;99.90;;;;;;5041000;28;20988;-86
2023/10/29 00:19:11;;;;;;;0.20;0.20;;;9.50;99.90;;;;;;5038179;28;20178;-87
2023/10/29 00:21:37;;;;;;;0.20;0.20;;;9.50;99.90;;;;;;5036143;28;20229;-86
2023/10/29 00:24:03;;;;;;;0.20;0.20;;;9.50;99.90;;;;;;5041007;28;20197;-86
2023/10/29 00:26:29;;;;;;;0.20;0.20;;;9.50;99.90;;;;;;5049977;28;20190;-87
2023/10/29 00:28:54;;;;;;;0.20;0.20;;;9.50;99.90;;;;;;5049515;28;20183;-87
2023/10/29 00:31:20;;;;;;;0.20;0.20;;;9.50;99.90;;;;;;5051746;28;20201;-87
2023/10/29 00:33:46;;;;;;;0.20;0.20;;;9.50;99.90;;;;;;5050270;28;20198;-86
2023/10/29 00:36:12;;;;;;;0.20;0.20;;;9.50;99.90;;;;;;5051912;28;20218;-85
2023/10/29 00:38:37;;;;;;;0.17;0.17;;;9.50;99.90;;;;;;5049084;28;20481;-86
2023/10/29 00:41:03;;;;;;;0.20;0.20;;;9.50;99.90;;;;;;5047560;28;20187;-88
2023/10/29 00:46:05;;;;;;;0.20;0.20;;;9.50;99.90;;;;;;5044146;28;20190;-87
2023/10/29 00:48:32;;;;;;;0.20;0.20;;;9.50;99.90;;;;;;5042884;28;20450;-87
2023/10/29 00:50:58;;;;;;;0.20;0.20;;;9.50;99.90;;;;;;5047746;28;20465;-86
2023/10/29 00:53:24;;;;;;;0.20;0.20;;;9.50;99.90;;;;;;5024983;28;21097;-88
2023/10/29 00:55:51;;;;;;;0.20;0.20;;;9.50;99.90;;;;;;5045452;28;20441;-87
2023/10/29 00:58:19;;;;;;;0.20;0.20;;;9.50;99.90;;;;;;5047301;28;20441;-86
2023/10/29 01:00:45;;;;;;;0.20;0.20;;;9.50;99.90;;;;;;5026993;28;20961;-86
2023/10/29 01:03:10;;;;;;;0.20;0.20;;;9.50;99.90;;;;;;5028111;28;20481;-86
2023/10/29 01:05:37;;;;;;;0.20;0.20;;;9.50;99.90;;;;;;5040208;28;20518;-87
2023/10/29 01:08:05;;;;;;;0.20;0.20;;;9.50;99.90;;;;;;5030244;28;20195;-87
2023/10/29 01:10:32;;;;;;;0.20;0.20;;;9.60;99.90;;;;;;5058041;28;20445;-87
2023/10/29 01:12:57;;;;;;;0.20;0.20;;;9.60;99.90;;;;;;5043326;28;20445;-89
2023/10/29 01:15:23;;;;;;;0.20;0.20;;;9.60;99.90;;;;;;5050407;28;20441;-85
2023/10/29 01:17:48;;;;;;;0.20;0.20;;;9.60;99.90;;;;;;5050387;28;20650;-89
2023/10/29 01:20:14;;;;;;;0.20;0.20;;;9.50;99.90;;;;;;5023962;28;20174;-87
2023/10/29 01:22:40;;;;;;;0.20;0.20;;;9.50;99.90;;;;;;5034431;28;20230;-88
2023/10/29 01:25:09;;;;;;;0.20;0.20;;;9.50;99.90;;;;;;5052654;28;20190;-86
2023/10/29 01:27:35;;;;;;;0.20;0.20;;;9.50;99.90;;;;;;5027015;28;20697;-86
2023/10/29 01:30:01;;;;;;;0.20;0.20;;;9.50;99.90;;;;;;5047901;28;20969;-87
2023/10/29 01:32:27;;;;;;;0.10;0.10;;;9.50;99.90;;;;;;5030953;28;20444;-86
2023/10/29 01:34:52;;;;;;;0.20;0.20;;;9.50;99.90;;;;;;5051669;28;20484;-87
2023/10/29 01:37:18;;;;;;;0.20;0.20;;;9.50;99.90;;;;;;5045476;28;20195;-86
2023/10/29 01:39:43;;;;;;;0.20;0.20;;;9.50;99.90;;;;;;5033944;28;20175;-86
2023/10/29 01:42:09;;;;;;;0.10;0.10;;;9.50;99.90;;;;;;5041920;28;20221;-88
2023/10/29 01:44:34;;;;;;;0.20;0.20;;;9.50;99.90;;;;;;5035466;28;20244;-85
2023/10/29 01:47:00;;;;;;;0.20;0.20;;;9.50;99.90;;;;;;5048918;28;20182;-85
2023/10/29 01:49:25;;;;;;;0.20;0.20;;;9.60;99.90;;;;;;5041961;28;20749;-87
2023/10/29 01:51:51;;;;;;;0.20;0.20;;;9.60;99.90;;;;;;5048813;28;20774;-86
2023/10/29 01:54:16;;;;;;;0.20;0.20;;;9.60;99.90;;;;;;5044845;28;20754;-87
2023/10/29 01:56:42;;;;;;;0.20;0.20;;;9.50;99.90;;;;;;5028679;28;20191;-89
2023/10/29 01:59:07;;;;;;;0.10;0.10;;;9.60;99.90;;;;;;5051678;28;20175;-87
2023/10/29 02:01:33;;;;;;;0.20;0.20;;;9.50;99.90;;;;;;5062787;28;20197;-87
2023/10/29 02:03:59;;;;;;;0.20;0.20;;;9.60;99.90;;;;;;5062721;28;20193;-88
2023/10/29 02:06:24;;;;;;;0.20;0.20;;;9.60;99.90;;;;;;5062966;28;20197;-87
2023/10/29 02:08:50;;;;;;;0.20;0.20;;;9.60;99.90;;;;;;5056278;28;20236;-88
2023/10/29 02:11:15;;;;;;;0.20;0.20;;;9.60;99.90;;;;;;5041694;28;20245;-86
2023/10/29 02:13:41;;;;;;;0.10;0.10;;;9.60;99.90;;;;;;5044907;28;20257;-88
2023/10/29 02:16:07;;;;;;;0.20;0.20;;;9.50;99.90;;;;;;5054684;28;20186;-89
2023/10/29 02:18:33;;;;;;;0.20;0.20;;;9.50;99.90;;;;;;5052821;28;20730;-88
2023/10/29 02:20:58;;;;;;;0.20;0.20;;;9.60;99.90;;;;;;5057101;28;20430;-88
2023/10/29 02:23:24;;;;;;;0.20;0.20;;;9.50;99.90;;;;;;5049821;28;20227;-87
2023/10/29 02:25:49;;;;;;;0.20;0.20;;;9.50;99.90;;;;;;5034485;28;20262;-85
2023/10/29 02:28:15;;;;;;;0.20;0.20;;;9.50;99.90;;;;;;5047942;28;20194;-91
2023/10/29 02:30:40;;;;;;;0.10;0.10;;;9.60;99.90;;;;;;5057597;28;20593;-90
2023/10/29 02:33:06;;;;;;;0.20;0.20;;;9.50;99.90;;;;;;5059728;28;20236;-87
2023/10/29 02:35:32;;;;;;;0.20;0.20;;;9.50;99.90;;;;;;5050721;28;20301;-86
2023/10/29 02:37:57;;;;;;;0.20;0.20;;;9.50;99.90;;;;;;5056777;28;20639;-86
2023/10/29 02:40:23;;;;;;;0.20;0.20;;;9.50;99.90;;;;;;5046321;28;20241;-86
2023/10/29 02:42:48;;;;;;;0.20;0.20;;;9.50;99.90;;;;;;5041901;28;20594;-87
2023/10/29 02:45:14;;;;;;;0.10;0.10;;;9.50;99.90;;;;;;5047587;28;20182;-89
2023/10/29 02:47:39;;;;;;;0.20;0.20;;;9.50;99.90;;;;;;5051930;28;20272;-87
2023/10/29 02:50:05;;;;;;;0.20;0.20;;;9.50;99.90;;;;;;5026431;28;20227;-86
2023/10/29 02:52:31;;;;;;;0.20;0.20;;;9.50;99.90;;;;;;5040125;28;20209;-88
2023/10/29 02:54:57;;;;;;;0.20;0.20;;;9.50;99.90;;;;;;5036424;28;20456;-86
2023/10/29 02:57:23;;;;;;;0.20;0.20;;;9.50;99.90;;;;;;5049928;28;20456;-86
2023/10/29 02:59:49;;;;;;;0.10;0.10;;;9.50;99.90;;;;;;5049414;28;20186;-87
2023/10/29 03:02:15;;;;;;;0.10;0.10;;;9.50;99.90;;;;;;5036348;28;21150;-86
2023/10/29 03:04:40;;;;;;;0.10;0.10;;;9.50;99.90;;;;;;5047351;28;20248;-87
2023/10/29 03:07:05;;;;;;;0.10;0.10;;;9.50;99.90;;;;;;5039596;28;20191;-86
2023/10/29 03:09:31;;;;;;;0.20;0.20;;;9.50;99.90;;;;;;5050677;28;20195;-88
2023/10/29 03:11:57;;;;;;;0.10;0.10;;;9.50;99.90;;;;;;5049535;28;20522;-87
2023/10/29 03:14:22;;;;;;;0.20;0.20;;;9.50;99.90;;;;;;5042947;28;20233;-85
2023/10/29 03:16:48;;;;;;;0.20;0.20;;;9.50;99.90;;;;;;5039677;28;20209;-86
2023/10/29 03:19:13;;;;;;;0.20;0.20;;;9.50;99.90;;;;;;5048912;28;20190;-86
2023/10/29 03:21:39;;;;;;;0.20;0.20;;;9.50;99.90;;;;;;5045787;28;20282;-87
2023/10/29 03:24:04;;;;;;;0.20;0.20;;;9.50;99.90;;;;;;5037630;28;20628;-86
2023/10/29 03:26:30;;;;;;;0.10;0.10;;;9.50;99.90;;;;;;5040114;28;20183;-86
2023/10/29 03:28:55;;;;;;;0.20;0.20;;;9.50;99.90;;;;;;5024553;28;20191;-85
2023/10/29 03:31:23;;;;;;;0.20;0.20;;;9.50;99.90;;;;;;5038756;28;20225;-87
2023/10/29 03:33:49;;;;;;;0.20;0.20;;;9.50;99.90;;;;;;5045258;28;20695;-86
2023/10/29 03:36:14;;;;;;;0.20;0.20;;;9.50;99.90;;;;;;5042799;28;20465;-85
2023/10/29 03:38:41;;;;;;;0.20;0.20;;;9.50;99.90;;;;;;5027840;28;20267;-86
2023/10/29 03:41:06;;;;;;;0.20;0.20;;;9.50;99.90;;;;;;5047942;28;20920;-84
2023/10/29 03:43:32;;;;;;;0.20;0.20;;;9.50;99.90;;;;;;5047366;28;20218;-84
2023/10/29 03:45:59;;;;;;;0.20;0.20;;;9.50;99.90;;;;;;5049173;28;20187;-85
2023/10/29 03:48:25;;;;;;;0.20;0.20;;;9.50;99.90;;;;;;5044659;28;20245;-84
2023/10/29 03:50:51;;;;;;;0.20;0.20;;;9.50;99.90;;;;;;5038595;28;20446;-85
2023/10/29 03:53:16;;;;;;;0.20;0.20;;;9.40;99.90;;;;;;5042036;28;20465;-84
2023/10/29 03:55:42;;;;;;;0.20;0.20;;;9.40;99.90;;;;;;5037687;28;20214;-84
2023/10/29 03:58:07;;;;;;;0.20;0.20;;;9.40;99.90;;;;;;5044732;28;20218;-88
2023/10/29 04:00:33;;;;;;;0.20;0.20;;;9.40;99.90;;;;;;5033685;28;20189;-85
2023/10/29 04:02:58;;;;;;;0.13;0.13;;;9.50;99.90;;;;;;5061740;28;20300;-85
2023/10/29 04:05:24;;;;;;;0.20;0.20;;;9.40;99.90;;;;;;5041359;28;20186;-85
2023/10/29 04:07:49;;;;;;;0.20;0.20;;;9.40;99.90;;;;;;5054389;28;20554;-84
2023/10/29 04:10:15;;;;;;;0.20;0.20;;;9.50;99.90;;;;;;5055016;28;20213;-84
2023/10/29 04:12:41;;;;;;;0.20;0.20;;;9.40;99.90;;;;;;5049469;28;20182;-84
2023/10/29 04:15:07;;;;;;;0.20;0.20;;;9.50;99.90;;;;;;5049692;28;20188;-85
2023/10/29 04:17:32;;;;;;;0.20;0.20;;;9.40;99.90;;;;;;5061790;28;20650;-86
2023/10/29 04:19:58;;;;;;;0.20;0.20;;;9.40;99.90;;;;;;5060748;28;20436;-85
2023/10/29 04:22:23;;;;;;;0.20;0.20;;;9.40;99.90;;;;;;5044738;28;20227;-86
2023/10/29 04:24:49;;;;;;;0.20;0.20;;;9.40;99.90;;;;;;5050007;28;20241;-85
2023/10/29 04:27:15;;;;;;;0.20;0.20;;;9.40;99.90;;;;;;5048416;28;20182;-87
2023/10/29 04:29:41;;;;;;;0.20;0.20;;;9.40;99.90;;;;;;5049515;28;21064;-85
2023/10/29 04:32:06;;;;;;;0.17;0.17;;;9.40;99.90;;;;;;5048864;28;20289;-87
2023/10/29 04:34:32;;;;;;;0.20;0.20;;;9.40;99.90;;;;;;5037721;28;20281;-84
2023/10/29 04:36:58;;;;;;;0.20;0.20;;;9.40;99.90;;;;;;5043839;28;20194;-85
2023/10/29 04:39:24;;;;;;;0.20;0.20;;;9.40;99.90;;;;;;5040611;28;20595;-84
2023/10/29 04:41:49;;;;;;;0.20;0.20;;;9.40;99.90;;;;;;5052283;28;20217;-85
2023/10/29 04:44:16;;;;;;;0.10;0.10;;;9.40;99.90;;;;;;5051875;28;20448;-86
2023/10/29 04:46:41;;;;;;;0.20;0.20;;;9.40;99.90;;;;;;5042667;28;20591;-83
2023/10/29 04:49:07;;;;;;;0.20;0.20;;;9.40;99.90;;;;;;5036476;28;20438;-85
2023/10/29 04:51:32;;;;;;;0.20;0.20;;;9.40;99.90;;;;;;5035788;28;20839;-84
2023/10/29 04:53:59;;;;;;;0.20;0.20;;;9.40;99.90;;;;;;5044994;28;20193;-84
2023/10/29 04:56:25;;;;;;;0.20;0.20;;;9.40;99.90;;;;;;5049875;28;20274;-85
2023/10/29 04:58:51;;;;;;;0.20;0.20;;;9.40;99.90;;;;;;5051289;28;20541;-85
2023/10/29 05:01:17;;;;;;;0.20;0.20;;;9.40;99.90;;;;;;5049295;28;20186;-85
2023/10/29 05:03:46;;;;;;;0.20;0.20;;;9.40;99.90;;;;;;5041886;28;20249;-85
2023/10/29 05:06:22;;;;;;;0.20;0.20;;;9.40;99.90;;;;;;5031932;28;20424;-83
2023/10/29 05:08:49;;;;;;;0.20;0.20;;;9.40;99.90;;;;;;5034413;28;20440;-84
2023/10/29 05:11:15;;;;;;;0.20;0.20;;;9.40;99.90;;;;;;5051325;28;20436;-86
2023/10/29 05:13:41;;;;;;;0.20;0.20;;;9.40;99.90;;;;;;5051363;28;21457;-85
2023/10/29 05:16:07;;;;;;;0.20;0.20;;;9.40;99.90;;;;;;5036305;28;20190;-87
2023/10/29 05:18:32;;;;;;;0.20;0.20;;;9.40;99.90;;;;;;5050082;28;20445;-86
2023/10/29 05:20:58;;;;;;;0.20;0.20;;;9.40;99.90;;;;;;5050984;28;20510;-84
2023/10/29 05:23:23;;;;;;;0.20;0.20;;;9.40;99.90;;;;;;5050720;28;20712;-85
2023/10/29 05:25:49;;;;;;;0.20;0.20;;;9.40;99.90;;;;;;5051885;28;20186;-85
2023/10/29 05:28:16;;;;;;;0.20;0.20;;;9.40;99.90;;;;;;5033608;28;20182;-86
2023/10/29 05:30:42;;;;;;;0.20;0.20;;;9.40;99.90;;;;;;5049063;28;20179;-83
2023/10/29 05:33:07;;;;;;;0.20;0.20;;;9.40;99.90;;;;;;5051973;28;20463;-84
2023/10/29 05:35:33;;;;;;;0.20;0.20;;;9.40;99.90;;;;;;5041490;28;20611;-86
2023/10/29 05:37:59;;;;;;;0.20;0.20;;;9.40;99.90;;;;;;5049908;28;20191;-84
2023/10/29 05:40:24;;;;;;;0.13;0.13;;;9.40;99.90;;;;;;5051224;28;20554;-85
2023/10/29 05:42:50;;;;;;;0.20;0.20;;;9.50;99.90;;;;;;5050619;28;20226;-85
2023/10/29 05:45:15;;;;;;;0.20;0.20;;;9.40;99.90;;;;;;5032440;28;20186;-84
2023/10/29 05:47:41;;;;;;;0.20;0.20;;;9.40;99.90;;;;;;5044109;28;20192;-88
2023/10/29 05:50:07;;;;;;;0.20;0.20;;;9.50;99.90;;;;;;5033118;28;20623;-85
2023/10/29 05:52:34;;;;;;;0.20;0.20;;;9.50;99.90;;;;;;5047501;28;20449;-86
2023/10/29 05:55:03;;;;;;;0.20;0.20;;;9.50;99.90;;;;;;5044688;28;20519;-85
2023/10/29 05:57:29;;;;;;;0.20;0.20;;;9.50;99.90;;;;;;5056686;28;20455;-84
2023/10/29 05:59:55;;;;;;;0.20;0.20;;;9.50;99.90;;;;;;5033323;28;20425;-87
2023/10/29 06:02:21;;;;;;;0.20;0.20;;;9.60;99.90;;;;;;5040150;28;20845;-86
2023/10/29 06:04:46;;;;;;;0.20;0.20;;;9.60;99.90;;;;;;5034433;28;20186;-85
2023/10/29 06:07:13;;;;;;;0.20;0.20;;;9.60;99.90;;;;;;5050407;28;20870;-84
2023/10/29 06:09:39;;;;;;;0.10;0.10;;;9.60;99.90;;;;;;5048153;28;20189;-85
2023/10/29 06:12:06;;;;;;;0.20;0.20;;;9.60;99.90;;;;;;5059464;28;20451;-85
2023/10/29 06:14:32;;;;;;;0.20;0.20;;;9.60;99.90;;;;;;5049597;28;20444;-83
2023/10/29 06:16:58;;;;;;;0.20;0.20;;;9.60;99.90;;;;;;5046284;28;20433;-86
2023/10/29 06:19:24;;;;;;;0.20;0.20;;;9.60;99.90;;;;;;5028233;28;20770;-85
2023/10/29 06:21:50;;;;;;;0.20;0.20;;;9.60;99.90;;;;;;5036483;28;20675;-85
2023/10/29 06:24:16;;;;;;;0.10;0.10;;;9.70;99.90;;;;;;5050013;28;20539;-83
2023/10/29 06:26:41;;;;;;;0.13;0.13;;;9.70;99.90;;;;;;5046503;28;20206;-85
2023/10/29 06:29:08;;;;;;;0.20;0.20;;;9.70;99.90;;;;;;5028784;28;21020;-83
2023/10/29 06:31:34;;;;;;;0.20;0.20;;;9.70;99.90;;;;;;5050392;28;20674;-86
2023/10/29 06:34:00;;;;;;;0.20;0.20;;;9.70;99.90;;;;;;5048699;28;20448;-85
2023/10/29 06:36:26;;;;;;;0.10;0.10;;;9.70;99.90;;;;;;5049323;28;20443;-84
2023/10/29 06:38:51;;;;;;;0.13;0.13;;;9.80;99.90;;;;;;5040457;28;20431;-84
2023/10/29 06:41:17;;;;;;;0.20;0.20;;;9.80;99.90;;;;;;5050428;28;20278;-85
2023/10/29 06:43:42;;;;;;;0.10;0.10;;;9.80;99.90;;;;;;5046118;28;20206;-83
2023/10/29 06:46:08;;;;;;;0.20;0.20;;;9.80;99.90;;;;;;5044035;28;20186;-84
2023/10/29 06:48:35;;;;;;;0.20;0.20;;;9.80;99.90;;;;;;5045874;28;20194;-85
2023/10/29 06:51:01;;;;;;;0.20;0.20;;;9.80;99.90;;;;;;5023572;28;20183;-84
2023/10/29 06:53:26;;;;;;;0.20;0.20;;;9.90;99.90;;;;;;5035821;28;20436;-83
2023/10/29 06:55:51;;;;;;;0.10;0.10;;;9.90;99.90;;;;;;5025227;28;20198;-84
2023/10/29 06:58:17;;;;;;;0.20;0.20;;;9.90;99.90;;;;;;5032269;28;20217;-84
2023/10/29 07:00:43;;;;;;;0.20;0.20;;;10.00;99.90;;;;;;5035696;28;20266;-84
2023/10/29 07:03:08;;;;;;;0.20;0.20;;;9.90;99.90;;;;;;5047149;28;20223;-84
2023/10/29 07:05:34;;;;;;;0.20;0.20;;;10.00;99.90;;;;;;5042379;28;20670;-85
2023/10/29 07:08:00;;;;;;;0.10;0.10;;;10.00;99.90;;;;;;5031261;28;20565;-84
2023/10/29 07:10:26;;;;;;;0.10;0.10;;;10.10;99.90;;;;;;5046158;28;20216;-83
2023/10/29 07:12:53;;;;;;;0.20;0.20;;;10.10;99.90;;;;;;5044604;28;21088;-85
2023/10/29 07:15:19;;;;;;;0.20;0.20;;;10.20;99.90;;;;;;5047223;28;20186;-83
2023/10/29 07:17:44;;;;;;;0.10;0.10;;;10.20;99.90;;;;;;5044047;28;20426;-82
2023/10/29 07:20:11;;;;;;;0.10;0.10;;;10.20;99.90;;;;;;5039982;28;20195;-84
2023/10/29 07:22:37;;;;;;;0.10;0.10;;;10.30;99.90;;;;;;5049383;28;20222;-84
2023/10/29 07:25:03;;;;;;;0.20;0.20;;;10.30;99.90;;;;;;5048560;28;21146;-83
2023/10/29 07:27:29;;;;;;;0.20;0.20;;;10.30;99.90;;;;;;5047889;28;20249;-82
2023/10/29 07:29:54;;;;;;;0.20;0.20;;;10.40;99.90;;;;;;5047997;28;20461;-83
2023/10/29 07:32:20;;;;;;;0.13;0.13;;;10.40;99.90;;;;;;5045633;28;20179;-83
2023/10/29 07:34:46;;;;;;;0.10;0.10;;;10.50;99.90;;;;;;5052435;28;20621;-82
2023/10/29 07:37:12;;;;;;;0.10;0.10;;;10.50;99.90;;;;;;5051104;28;20670;-82
2023/10/29 07:39:37;;;;;;;0.10;0.10;;;10.60;99.90;;;;;;5047330;28;20171;-82
2023/10/29 07:42:03;;;;;;;0.10;0.10;;;10.60;99.90;;;;;;5047950;28;20522;-84
2023/10/29 07:44:29;;;;;;;0.10;0.10;;;10.70;99.90;;;;;;5054088;28;20650;-85
2023/10/29 07:46:54;;;;;;;0.10;0.10;;;10.80;99.90;;;;;;5039253;28;20638;-85
2023/10/29 07:49:20;;;;;;;0.10;0.10;;;10.80;99.90;;;;;;5044438;28;20260;-84
2023/10/29 07:51:48;;;;;;;0.10;0.10;;;10.80;99.90;;;;;;5026513;28;20201;-83
2023/10/29 07:54:13;;;;;;;0.20;0.20;;;10.90;99.90;;;;;;5052772;28;20183;-83
2023/10/29 07:56:39;;;;;;;0.20;0.20;;;10.90;99.90;;;;;;5050513;28;20459;-84
2023/10/29 07:59:04;;;;;;;0.10;0.10;;;10.80;99.90;;;;;;5054923;28;20191;-84
2023/10/29 08:01:30;;;;;;;0.10;0.10;;;10.90;99.90;;;;;;5049380;28;20278;-83
2023/10/29 08:03:57;;;;;;;0.20;0.20;;;10.90;99.90;;;;;;5044374;28;20191;-84
2023/10/29 08:06:23;;;;;;;0.17;0.17;;;10.90;99.90;;;;;;5030657;28;20183;-84
2023/10/29 08:08:48;;;;;;;0.20;0.20;;;11.00;99.90;;;;;;5031379;28;20495;-85
2023/10/29 08:11:21;;;;;;;0.10;0.10;;;11.00;99.90;;;;;;5039347;28;20430;-84
2023/10/29 08:13:47;;;;;;;0.10;0.10;;;11.00;99.90;;;;;;5039130;28;20183;-84
2023/10/29 08:16:13;;;;;;;0.20;0.20;;;11.00;99.90;;;;;;5030773;28;20841;-85
2023/10/29 08:18:39;;;;;;;0.10;0.10;;;11.00;99.90;;;;;;5049878;28;20191;-83
2023/10/29 08:21:05;;;;;;;0.10;0.10;;;11.10;99.90;;;;;;5046324;28;20441;-85
2023/10/29 08:23:31;;;;;;;0.10;0.10;;;11.20;99.90;;;;;;5047352;28;20218;-84
2023/10/29 08:25:56;;;;;;;0.10;0.10;;;11.30;99.90;;;;;;5053131;28;20475;-84
2023/10/29 08:28:22;;;;;;;0.10;0.10;;;11.50;99.90;;;;;;5049656;28;20390;-86
2023/10/29 08:30:48;;;;;;;0.10;0.10;;;11.60;99.90;;;;;;5048037;28;20183;-85
2023/10/29 08:33:13;;;;;;;0.10;0.10;;;11.70;99.90;;;;;;5048675;28;20977;-85
2023/10/29 08:35:44;;;;;;;0.10;0.10;;;11.70;99.90;;;;;;5044348;28;20214;-84
2023/10/29 08:38:09;;;;;;;0.10;0.10;;;11.80;99.90;;;;;;5041958;28;20190;-85
2023/10/29 08:40:35;;;;;;;0.10;0.10;;;11.90;99.90;;;;;;5044787;28;21540;-83
2023/10/29 08:43:04;;;;;;;0.10;0.10;;;12.10;99.90;;;;;;5049237;28;20225;-84
2023/10/29 08:45:30;;;;;;;0.10;0.10;;;12.20;99.90;;;;;;5042903;28;20488;-85
2023/10/29 08:47:55;;;;;;;0.10;0.10;;;12.20;99.90;;;;;;5047973;28;20437;-85
2023/10/29 08:50:21;;;;;;;0.10;0.10;;;12.30;99.90;;;;;;5031728;28;20171;-87
2023/10/29 08:52:46;;;;;;;0.10;0.10;;;12.20;99.90;;;;;;5047785;28;20615;-86
2023/10/29 08:55:12;;;;;;;0.17;0.17;;;12.30;99.90;;;;;;5044674;28;20285;-84
2023/10/29 08:57:37;;;;;;;0.20;0.20;;;12.40;99.90;;;;;;5050743;28;20252;-84
2023/10/29 09:00:03;;;;;;;0.20;0.20;;;12.50;99.90;;;;;;5029163;28;20217;-85
2023/10/29 09:02:29;;;;;;;0.10;0.10;;;12.70;99.90;;;;;;5052756;28;20222;-85
2023/10/29 09:04:57;;;;;;;0.10;0.10;;;12.80;99.90;;;;;;5029101;28;20548;-85
2023/10/29 09:07:24;;;;;;;0.10;0.10;;;12.70;99.90;;;;;;5028791;28;20198;-84
2023/10/29 09:09:49;;;;;;;0.10;0.10;;;12.80;99.90;;;;;;5050373;28;20967;-84
2023/10/29 09:12:15;;;;;;;0.10;0.10;;;12.80;99.90;;;;;;5034776;28;20519;-82
2023/10/29 09:14:40;;;;;;;0.10;0.10;;;13.00;99.90;;;;;;5031516;28;20657;-86
2023/10/29 09:17:06;;;;;;;0.10;0.10;;;13.20;99.90;;;;;;5047244;28;20190;-84
2023/10/29 09:19:32;;;;;;;0.10;0.10;;;13.40;99.90;;;;;;5051531;28;20179;-84
2023/10/29 09:21:58;;;;;;;0.10;0.10;;;13.60;99.90;;;;;;5048830;28;20226;-84
2023/10/29 09:24:23;;;;;;;0.10;0.10;;;13.90;99.90;;;;;;5052368;28;20436;-84
2023/10/29 09:26:49;;;;;;;0.10;0.10;;;13.90;99.90;;;;;;5051871;28;20597;-84
2023/10/29 09:29:16;;;;;;;0.10;0.10;;;13.90;99.90;;;;;;5051795;28;20251;-86
2023/10/29 09:31:42;;;;;;;0.10;0.10;;;14.10;99.90;;;;;;5035634;28;20210;-84
2023/10/29 09:34:08;;;;;;;0.10;0.10;;;14.20;99.90;;;;;;5052689;28;20884;-85
2023/10/29 09:36:33;;;;;;;0.10;0.10;;;14.40;99.90;;;;;;5052047;28;20904;-88
2023/10/29 09:38:59;;;;;;;0.10;0.10;;;14.20;99.90;;;;;;5042694;28;20290;-87
2023/10/29 09:41:25;;;;;;;0.23;0.23;;;14.10;99.90;;;;;;5054007;28;20190;-84
2023/10/29 09:43:53;;;;;;;0.10;0.10;;;14.10;99.90;;;;;;5055184;28;20448;-87
2023/10/29 09:46:20;;;;;;;0.10;0.10;;;14.20;99.90;;;;;;5045794;28;20215;-88
2023/10/29 09:48:46;;;;;;;0.10;0.10;;;13.90;99.90;;;;;;5032890;28;20491;-87
2023/10/29 09:51:12;;;;;;;0.10;0.10;;;13.80;99.90;;;;;;5054944;28;20443;-83
2023/10/29 09:53:38;;;;;;;0.10;0.10;;;13.70;99.90;;;;;;5049123;28;20441;-86
2023/10/29 09:56:10;;;;;;;0.10;0.10;;;14.20;99.90;;;;;;5045901;28;20607;-87
2023/10/29 09:58:36;;;;;;;0.10;0.10;;;14.70;99.90;;;;;;5052198;28;20182;-90
2023/10/29 10:01:04;;;;;;;0.10;0.10;;;15.10;99.90;;;;;;5042018;28;20506;-88
2023/10/29 10:03:30;;;;;;;0.10;0.10;;;15.70;99.90;;;;;;5043553;28;20477;-95
2023/10/29 10:05:57;;;;;;;0.10;0.10;;;16.00;99.90;;;;;;5025564;28;20437;-83
2023/10/29 10:08:28;;;;;;;0.10;0.10;;;15.70;99.90;;;;;;5037347;28;20462;-84
2023/10/29 10:10:56;;;;;;;0.10;0.10;;;15.80;99.90;;;;;;5047770;28;20421;-85
2023/10/29 10:13:39;;;;;;;0.10;0.10;;;15.90;99.90;;;;;;5038180;28;20433;-84
2023/10/29 10:16:10;;;;;;;0.10;0.10;;;15.80;99.90;;;;;;5043237;28;20430;-84
2023/10/29 10:18:53;;;;;;;0.10;0.10;;;15.10;99.90;;;;;;5022553;28;20514;-83
2023/10/29 10:21:50;;;;;;;0.10;0.10;;;14.80;99.90;;;;;;5046196;28;21024;-84
2023/10/29 10:24:15;;;;;;;0.10;0.10;;;14.60;99.90;;;;;;5033214;28;20528;-83
2023/10/29 10:26:41;;;;;;;0.10;0.10;;;14.40;99.90;;;;;;5030023;28;20426;-85
2023/10/29 10:29:08;;;;;;;0.10;0.10;;;14.40;99.90;;;;;;5032810;28;20183;-85
2023/10/29 10:31:35;;;;;;;0.10;0.10;;;14.40;99.90;;;;;;5031538;28;20186;-84
2023/10/29 10:34:17;;;;;;;0.20;0.20;;;14.40;99.90;;;;;;5048307;28;20433;-84
2023/10/29 10:36:49;;;;;;;0.10;0.10;;;14.40;99.90;;;;;;5051871;28;20445;-84
2023/10/29 10:39:19;;;;;;;0.10;0.10;;;14.50;99.90;;;;;;5044222;28;20438;-84
2023/10/29 10:41:46;;;;;;;0.10;0.10;;;14.40;99.90;;;;;;5039991;28;20578;-84
2023/10/29 10:44:17;;;;;;;0.13;0.13;;;14.30;99.90;;;;;;5033018;28;20417;-82
2023/10/29 10:46:53;;;;;;;0.10;0.10;;;14.20;99.90;;;;;;5055839;28;20983;-81
2023/10/29 10:49:20;;;;;;;0.10;0.10;;;14.10;99.90;;;;;;5038815;28;20444;-81
2023/10/29 10:51:47;;;;;;;0.10;0.10;;;14.00;99.90;;;;;;5028587;28;20425;-83
2023/10/29 10:54:15;;;;;;;0.10;0.10;;;14.00;99.90;;;;;;5051401;28;20508;-82
2023/10/29 10:56:41;;;;;;;0.10;0.10;;;13.90;99.90;;;;;;5030556;28;20480;-82
2023/10/29 10:59:08;;;;;;;0.10;0.10;;;14.00;99.90;;;;;;5028660;28;20963;-82
2023/10/29 11:01:38;;;;;;;0.10;0.10;;;14.00;99.90;;;;;;5045646;28;20452;-83
2023/10/29 11:04:07;;;;;;;0.10;0.10;;;14.20;99.90;;;;;;5030407;28;20437;-83
2023/10/29 11:06:37;;;;;;;0.10;0.10;;;14.40;99.90;;;;;;5022100;28;20445;-84
2023/10/29 11:09:05;;;;;;;0.10;0.10;;;14.50;99.90;;;;;;5046049;28;20427;-82
2023/10/29 11:11:37;;;;;;;0.10;0.10;;;14.50;99.90;;;;;;5030661;28;20989;-81
2023/10/29 11:14:14;;;;;;;0.10;0.10;;;15.10;99.90;;;;;;5020460;28;20512;-87
2023/10/29 11:16:57;;;;;;;0.10;0.10;;;16.60;99.90;;;;;;5026774;28;20425;-87
2023/10/29 11:19:43;;;;;;;0.10;0.10;;;17.20;99.90;;;;;;5023710;28;20541;-87
2023/10/29 11:22:31;;;;;;;0.07;0.00;;;17.90;99.90;;;;;;5046158;28;20468;-86
2023/10/29 11:25:08;;;;;;;0.10;0.00;;;18.60;99.90;;;;;;5031418;28;20449;-85
2023/10/29 11:27:34;;;;;;;0.10;0.10;;;19.10;99.90;;;;;;5053540;28;20811;-94
2023/10/29 11:30:23;;;;;;;0.10;0.10;;;18.80;99.90;;;;;;5030527;28;20433;-87
2023/10/29 11:33:27;;;;;;;0.10;0.00;;;18.70;99.90;;;;;;5042439;28;20437;-88
2023/10/29 11:36:28;;;;;;;0.10;0.00;;;19.50;99.90;;;;;;5045786;28;20458;-91
2023/10/29 11:38:54;;;;;;;0.10;0.00;;;19.30;99.90;;;;;;5037596;28;20517;-91
2023/10/29 11:41:34;;;;;;;0.07;0.00;;;18.40;99.90;;;;;;5042031;28;20945;-89
2023/10/29 11:44:19;;;;;;;0.10;0.00;;;19.00;99.90;;;;;;5029236;28;20702;-94
2023/10/29 11:47:05;;;;;;;0.10;0.00;;;18.20;99.90;;;;;;5061328;28;20420;-90
2023/10/29 11:49:53;;;;;;;0.10;0.07;;;17.30;99.90;;;;;;5049150;28;20504;-96
2023/10/29 11:52:19;;;;;;;0.10;0.00;;;16.70;99.90;;;;;;5058543;28;20425;-86
2023/10/29 11:54:45;;;;;;;0.00;0.00;;;16.40;99.90;;;;;;5026400;28;20491;-89
2023/10/29 11:57:13;;;;;;;0.10;0.10;;;16.00;99.90;;;;;;5053489;28;20224;-88
2023/10/29 11:59:55;;;;;;;0.10;0.10;;;15.50;99.90;;;;;;5066787;28;20189;-87
2023/10/29 12:02:21;;;;;;;0.10;0.10;;;15.50;99.90;;;;;;5054556;28;20481;-89
2023/10/29 12:04:47;;;;;;;0.10;0.10;;;15.50;99.90;;;;;;5050930;28;20425;-89
2023/10/29 12:07:26;;;;;;;0.10;0.10;;;15.30;99.90;;;;;;5050434;28;20437;-90
2023/10/29 12:10:02;;;;;;;0.10;0.10;;;15.60;99.90;;;;;;5051544;28;20428;-89
2023/10/29 12:12:27;;;;;;;0.10;0.10;;;15.50;99.90;;;;;;5040445;28;20501;-88
2023/10/29 12:14:53;;;;;;;0.10;0.10;;;15.30;99.90;;;;;;5061381;28;20939;-87
2023/10/29 12:17:19;;;;;;;0.10;0.10;;;15.10;99.90;;;;;;5037565;28;20232;-87
2023/10/29 12:19:45;;;;;;;0.10;0.10;;;15.50;99.90;;;;;;5054979;28;20182;-89
2023/10/29 12:22:19;;;;;;;0.10;0.10;;;16.80;99.90;;;;;;5050327;28;20206;-87
2023/10/29 12:24:46;;;;;;;0.10;0.10;;;17.50;99.90;;;;;;5056109;28;20394;-88
2023/10/29 12:27:13;;;;;;;0.10;0.00;;;18.40;99.90;;;;;;5041285;28;20427;-86
2023/10/29 12:29:39;;;;;;;0.10;0.07;;;17.80;99.90;;;;;;5036426;28;20444;-87
2023/10/29 12:32:06;;;;;;;0.10;0.10;;;17.50;99.90;;;;;;5049693;28;20447;-88
2023/10/29 12:34:52;;;;;;;0.10;0.10;;;17.00;99.90;;;;;;5029529;28;20215;-88
2023/10/29 12:37:22;;;;;;;0.10;0.10;;;16.70;99.90;;;;;;5047465;28;20427;-88
2023/10/29 12:39:49;;;;;;;0.10;0.10;;;16.40;99.90;;;;;;5030275;28;20481;-92
2023/10/29 12:42:15;;;;;;;0.10;0.10;;;16.40;99.90;;;;;;5045868;28;21012;-88
2023/10/29 12:44:51;;;;;;;0.10;0.10;;;16.30;99.90;;;;;;5035405;28;20481;-88
2023/10/29 12:47:16;;;;;;;0.10;0.10;;;16.00;99.90;;;;;;5031050;28;20191;-87
2023/10/29 12:49:42;;;;;;;0.10;0.10;;;15.90;99.90;;;;;;5033691;28;20422;-87
2023/10/29 12:52:13;;;;;;;0.10;0.10;;;16.60;99.90;;;;;;5014960;28;20187;-89
2023/10/29 12:54:44;;;;;;;0.10;0.10;;;17.20;99.90;;;;;;5034009;28;20175;-88
2023/10/29 12:57:15;;;;;;;0.10;0.10;;;17.90;99.90;;;;;;5039869;28;20428;-93